METAR Data
IDs: Format: Raw Decoded Include TAF

Data at: 0910 UTC 20 Sep 2018

KRFD 200854Z 01010KT 10SM OVC007 18/17 A2998 RMK AO2 SLP150 T01780167 55005
KRFD 200754Z 10006KT 8SM OVC006 17/16 A2997 RMK AO2 LTG DSNT NW SLP146 OCNL LTGIC DSNT N CB DSNT N MOV NE T01720161
KRFD 200654Z 04008KT 6SM BR OVC004 17/16 A3000 RMK AO2 SLP156 T01720161
KRFD 200652Z 04007KT 6SM BR OVC004 17/16 A3000 RMK AO2
KRFD 200554Z 08004KT 8SM OVC007 17/16 A2999 RMK AO2 SLP153 T01720161 10194 20172 402560156 58009
KRFD 200454Z 04007KT 9SM OVC007 17/16 A3001 RMK AO2 SLP159 T01720161
KRFD 200354Z 08005KT 8SM BKN007 OVC100 18/16 A3001 RMK AO2 SLP158 T01780161
KRFD 200254Z 07007KT 9SM OVC006 18/17 A3002 RMK AO2 SLP163 T01780167 51015
KRFD 200154Z 07007KT 10SM OVC007 18/17 A3001 RMK AO2 SLP161 T01780167
KRFD 200131Z 09005KT 10SM BKN008 18/17 A3001 RMK AO2 T01780167
KRFD 200054Z 07006KT 10SM FEW009 FEW150 18/17 A2999 RMK AO2 SLP152 T01830167
KRFD 192354Z 06008KT 10SM FEW090 SCT170 19/17 A2997 RMK AO2 SLP148 60015 T01940172 10250 20194 55019
KRFD 192254Z 11010KT 10SM FEW022 SCT110 BKN170 21/19 A2996 RMK AO2 RAE29 TSE10 SLP143 P0006 T02060189
KRFD 192216Z 13016G23KT 5SM RA BR FEW011 SCT085 OVC110 21/19 A2995 RMK AO2 TSE10 PRESFR P0005 T02060189
KRFD 192154Z 17010KT 6SM TSRA BR FEW065CB OVC110 21/19 A3001 RMK AO2 LTG DSNT SW TSB40 SLP160 OCNL LTGIC SW TS SW MOV SE P0003 T02060194
KRFD 192142Z 13007KT 6SM TSRA BR FEW025 SCT070CB OVC110 21/19 A3002 RMK AO2 LTG DSNT SW AND W TSB40 PRESFR FRQ LTGIC SW-W TS SW-W MOV SE P0001 T02060194
KRFD 192054Z 02006KT 7SM -RA FEW048 SCT075 OVC100 21/19 A3003 RMK AO2 RAB02 SLP168 P0006 60006 T02110194 58000
KRFD 191954Z 31010KT 10SM BKN035 OVC048 23/18 A3004 RMK AO2 SLP171 T02330178
KRFD 191854Z 00000KT 10SM BKN046 BKN080 OVC250 25/17 A3005 RMK AO2 LTG DSNT NW SLP172 T02500172
KRFD 191754Z 10004KT 10SM FEW028 SCT150 OVC250 24/17 A3003 RMK AO2 SLP167 T02440172 10256 20167 58005
KRFD 191654Z 09005KT 10SM FEW020 FEW150 OVC250 23/18 A3004 RMK AO2 SLP169 T02330178
KRFD 191554Z VRB05KT 10SM FEW014 OVC250 23/17 A3006 RMK AO2 SLP177 T02280172
KRFD 191516Z 13004KT 10SM SCT012 BKN250 21/17 A3005 RMK AO2 T02110172
KRFD 191454Z 11005KT 10SM BKN010 BKN250 20/17 A3005 RMK AO2 SLP173 T02000167 53003
KRFD 191354Z 12006KT 10SM OVC007 18/17 A3003 RMK AO2 SLP168 T01830167
KRFD 191311Z 09007KT 6SM BR OVC005 17/16 A3004 RMK AO2 T01720156
KRFD 191254Z 11006KT 6SM BR OVC004 17/16 A3005 RMK AO2 SLP173 T01720156
KRFD 191154Z 10008KT 5SM BR OVC004 16/16 A3004 RMK AO2 SLP170 70050 T01610156 10178 20156 51004
KRFD 191118Z 10005KT 6SM BR OVC004 16/15 A3004 RMK AO2 T01610150
KRFD 191054Z 10006KT 10SM OVC006 16/15 A3004 RMK AO2 SLP169 T01610150
KRFD 191027Z 08003KT 10SM BKN007 16/15 A3004 RMK AO2 T01610150
KRFD 190954Z 07003KT 10SM FEW006 16/15 A3003 RMK AO2 SLP168 T01560150
KRFD 190854Z 07003KT 10SM SCT008 17/16 A3003 RMK AO2 SLP166 T01670156 51003
KRFD 190803Z 06004KT 10SM SCT008 17/16 A3002 RMK AO2 T01720156
KRFD 190754Z 08006KT 8SM BKN008 17/16 A3002 RMK AO2 SLP163 T01720161
KRFD 190654Z 06006KT 6SM BR OVC005 18/17 A3003 RMK AO2 SLP168 T01780167
KRFD 190630Z 06007KT 6SM BR BKN005 18/17 A3003 RMK AO2 T01780167
KRFD 190614Z 07007KT 6SM BR SCT006 18/17 A3002 RMK AO2 T01780167
KRFD 190554Z 06005KT 6SM BR FEW010 18/17 A3002 RMK AO2 SLP163 T01780167 10194 20178 402220178 53005
KRFD 190454Z 09005KT 6SM BR CLR 18/17 A3001 RMK AO2 SLP159 T01830172
KRFD 190354Z 08005KT 8SM FEW011 18/17 A3001 RMK AO2 SLP160 T01830172
KRFD 190254Z 00000KT 10SM FEW011 FEW210 18/17 A3000 RMK AO2 SLP158 T01780167 51020
KRFD 190154Z 01006KT 10SM SCT200 18/17 A3000 RMK AO2 SLP156 T01830172
KRFD 190054Z 12003KT 10SM SCT120 SCT250 18/17 A2996 RMK AO2 SLP145 T01830172
KRFD 182354Z 08007KT 10SM BKN120 BKN250 19/17 A2994 RMK AO2 SLP136 60009 T01940172 10206 20183 55004
KRFD 182254Z 13003KT 10SM FEW100 SCT180 OVC250 20/18 A2993 RMK AO2 SLP131 T02000178
KRFD 182154Z 21005KT 10SM FEW095 BKN130 OVC250 19/17 A2994 RMK AO2 SLP137 T01940172